Terminal Aerodrome Forecast
Issued by NWS

Home | Current Version | Previous Version | Text Only | Print | Product List | Glossary On
Versions: 1 2 3 4 5 6 7 8 9 10 11 12 13 14 15 16 17 18
000
FTUS44 KLZK 281100
TAFHRO
TAF
KHRO 281120Z 2812/2912 31004KT P6SM SCT020 BKN100
     FM282000 VRB03KT P6SM SKC
     FM291000 VRB03KT 5SM BR BKN010=

USA.gov is the U.S. government's official web portal to all federal, state and local government web resources and services.